Time;durP1;ratioP1;P1;durP2;ratioP2;P2;SDS_P1;SDS_P2;PMS_P1;PMS_P2;Temp;Humidity;BMP_temperature;BMP_pressure;BME280_temperature;BME280_humidity;BME280_pressure;Samples;Min_cycle;Max_cycle;Signal;HPM_P1;HPM_P2
2021/12/31 00:02:22;;;;;;;23.92;7.35;;;-1.00;99.90;;;;;;5095620;28;20040;-85
2021/12/31 00:04:50;;;;;;;19.58;6.32;;;-1.10;99.90;;;;;;5076110;28;20367;-86
2021/12/31 00:07:16;;;;;;;17.80;6.05;;;-1.00;99.90;;;;;;5075173;28;20545;-86
2021/12/31 00:09:42;;;;;;;18.50;6.97;;;-1.00;99.90;;;;;;5076412;28;20024;-85
2021/12/31 00:12:08;;;;;;;31.27;9.50;;;-1.00;99.90;;;;;;5076919;28;20027;-86
2021/12/31 00:14:35;;;;;;;26.83;8.85;;;-1.00;99.90;;;;;;5075051;28;20494;-86
2021/12/31 00:17:01;;;;;;;19.70;6.38;;;-1.10;99.90;;;;;;5075060;28;20025;-86
2021/12/31 00:19:30;;;;;;;25.42;8.07;;;-1.10;99.90;;;;;;5093275;28;20038;-86
2021/12/31 00:21:57;;;;;;;20.52;9.07;;;-1.10;99.90;;;;;;5094929;28;20073;-86
2021/12/31 00:24:25;;;;;;;18.90;6.03;;;-1.10;99.90;;;;;;5095287;28;20086;-86
2021/12/31 00:26:51;;;;;;;30.73;7.53;;;-1.10;99.90;;;;;;5094956;28;20115;-86
2021/12/31 00:29:17;;;;;;;22.02;6.57;;;-1.10;99.90;;;;;;5096210;28;20466;-86
2021/12/31 00:31:43;;;;;;;15.20;5.32;;;-1.10;99.90;;;;;;5094911;28;20028;-86
2021/12/31 00:34:08;;;;;;;17.75;6.47;;;-1.10;99.90;;;;;;5076824;28;20107;-86
2021/12/31 00:36:39;;;;;;;22.10;5.68;;;-1.10;99.90;;;;;;5074731;28;20450;-86
2021/12/31 00:39:04;;;;;;;21.38;6.05;;;-1.10;99.90;;;;;;5074693;28;20056;-86
2021/12/31 00:41:30;;;;;;;21.30;6.25;;;-1.20;99.90;;;;;;5074682;28;20064;-86
2021/12/31 00:43:56;;;;;;;22.88;7.55;;;-1.20;99.90;;;;;;5074473;28;20025;-86
2021/12/31 00:46:21;;;;;;;20.60;6.88;;;-1.10;99.90;;;;;;5075663;28;20074;-86
2021/12/31 00:48:47;;;;;;;26.20;7.93;;;-1.20;99.90;;;;;;5091277;28;20020;-86
2021/12/31 00:51:12;;;;;;;43.20;13.60;;;-1.20;99.90;;;;;;5094680;28;20070;-86
2021/12/31 00:53:38;;;;;;;26.67;7.47;;;-1.20;99.90;;;;;;5094437;28;20028;-86
2021/12/31 00:56:04;;;;;;;28.33;9.23;;;-1.20;99.90;;;;;;5094422;28;20028;-86
2021/12/31 00:58:30;;;;;;;27.13;7.95;;;-1.20;99.90;;;;;;5094703;28;20115;-86
2021/12/31 01:00:56;;;;;;;25.58;7.20;;;-1.20;99.90;;;;;;5094528;28;20032;-85
2021/12/31 01:03:21;;;;;;;17.27;6.05;;;-1.10;99.90;;;;;;5078260;28;20514;-86
2021/12/31 01:05:47;;;;;;;24.63;8.60;;;-1.20;99.90;;;;;;5073330;28;20056;-86
2021/12/31 01:08:13;;;;;;;18.10;6.43;;;-1.20;99.90;;;;;;5074060;28;20028;-86
2021/12/31 01:10:38;;;;;;;22.92;6.30;;;-1.20;99.90;;;;;;5074079;28;20020;-86
2021/12/31 01:13:09;;;;;;;22.25;5.90;;;-1.20;99.90;;;;;;5079713;28;20058;-86
2021/12/31 01:15:45;;;;;;;21.80;6.28;;;-1.20;99.90;;;;;;5094194;28;20028;-86
2021/12/31 01:20:37;;;;;;;29.65;8.77;;;-1.20;99.90;;;;;;5078113;28;20021;-87
2021/12/31 01:23:04;;;;;;;34.40;9.55;;;-1.20;99.90;;;;;;5073585;28;20056;-86
2021/12/31 01:25:30;;;;;;;26.45;7.43;;;-1.20;99.90;;;;;;5073859;28;20111;-86
2021/12/31 01:27:56;;;;;;;24.77;7.50;;;-1.20;99.90;;;;;;5073411;28;20107;-86
2021/12/31 01:30:22;;;;;;;30.45;8.40;;;-1.20;99.90;;;;;;5074267;28;20020;-86
2021/12/31 01:32:48;;;;;;;23.65;7.60;;;-1.20;99.90;;;;;;5090986;28;20123;-86
2021/12/31 01:35:15;;;;;;;38.88;11.02;;;-1.20;99.90;;;;;;5093970;28;20024;-86
2021/12/31 01:37:41;;;;;;;33.05;11.20;;;-1.20;99.90;;;;;;5095041;28;20032;-86
2021/12/31 01:40:08;;;;;;;41.58;9.90;;;-1.20;99.90;;;;;;5095155;28;20077;-86
2021/12/31 01:42:36;;;;;;;32.00;9.02;;;-1.20;99.90;;;;;;5093521;28;20028;-86
2021/12/31 01:45:19;;;;;;;28.02;8.63;;;-1.20;99.90;;;;;;5093877;28;20020;-86
2021/12/31 01:50:29;;;;;;;30.35;8.48;;;-1.20;99.90;;;;;;5074713;28;20017;-87
2021/12/31 01:52:55;;;;;;;36.08;8.75;;;-1.20;99.90;;;;;;5073379;28;20025;-87
2021/12/31 01:55:24;;;;;;;24.65;7.57;;;-1.20;99.90;;;;;;5073338;28;20025;-87
2021/12/31 01:57:51;;;;;;;27.20;7.75;;;-1.20;99.90;;;;;;5073293;28;20390;-87
2021/12/31 02:00:17;;;;;;;27.60;7.70;;;-1.20;99.90;;;;;;5074484;28;20020;-87
2021/12/31 02:02:44;;;;;;;31.90;7.47;;;-1.20;99.90;;;;;;5073445;28;20027;-87
2021/12/31 02:05:10;;;;;;;30.77;8.10;;;-1.20;99.90;;;;;;5073377;28;20535;-87
2021/12/31 02:07:37;;;;;;;28.90;9.57;;;-1.20;99.90;;;;;;5073261;28;20462;-86
2021/12/31 02:10:04;;;;;;;27.35;8.60;;;-1.20;99.90;;;;;;5073136;28;20055;-86
2021/12/31 02:12:29;;;;;;;33.28;8.82;;;-1.20;99.90;;;;;;5073227;28;20035;-87
2021/12/31 02:14:55;;;;;;;33.90;9.88;;;-1.20;99.90;;;;;;5073195;28;20029;-87
2021/12/31 02:17:21;;;;;;;31.00;8.20;;;-1.20;99.90;;;;;;5091870;28;20477;-87
2021/12/31 02:20:05;;;;;;;20.65;7.60;;;-1.20;99.90;;;;;;5093206;28;20028;-87
2021/12/31 02:22:31;;;;;;;35.60;10.05;;;-1.30;99.90;;;;;;5093081;28;20076;-87
2021/12/31 02:25:00;;;;;;;27.23;7.82;;;-1.30;99.90;;;;;;5093254;28;20466;-87
2021/12/31 02:27:26;;;;;;;32.38;10.27;;;-1.30;99.90;;;;;;5093295;28;20390;-87
2021/12/31 02:29:52;;;;;;;27.60;7.68;;;-1.30;99.90;;;;;;5093759;28;20047;-86
2021/12/31 02:32:18;;;;;;;24.73;8.18;;;-1.40;99.90;;;;;;5072968;28;20020;-86
2021/12/31 02:34:45;;;;;;;25.52;8.60;;;-1.40;99.90;;;;;;5074336;28;20035;-87
2021/12/31 02:37:11;;;;;;;20.67;7.60;;;-1.40;99.90;;;;;;5075197;28;20054;-86
2021/12/31 02:39:39;;;;;;;30.25;8.00;;;-1.40;99.90;;;;;;5072818;28;20033;-86
2021/12/31 02:42:06;;;;;;;35.63;9.40;;;-1.40;99.90;;;;;;5072769;28;20130;-86
2021/12/31 02:44:32;;;;;;;31.55;9.80;;;-1.40;99.90;;;;;;5072797;28;20021;-87
2021/12/31 02:47:02;;;;;;;32.53;9.60;;;-1.50;99.90;;;;;;5092731;28;20027;-87
2021/12/31 02:49:29;;;;;;;34.28;9.52;;;-1.50;99.90;;;;;;5092980;28;20020;-87
2021/12/31 02:51:59;;;;;;;30.05;8.75;;;-1.50;99.90;;;;;;5079444;28;20090;-87
2021/12/31 02:54:28;;;;;;;34.30;9.05;;;-1.40;99.90;;;;;;5072846;28;20032;-87
2021/12/31 02:56:54;;;;;;;33.30;11.02;;;-1.40;99.90;;;;;;5073317;28;20534;-87
2021/12/31 02:59:20;;;;;;;27.70;8.75;;;-1.40;99.90;;;;;;5073675;28;20120;-87
2021/12/31 03:01:46;;;;;;;34.35;9.80;;;-1.40;99.90;;;;;;5089115;28;20111;-87
2021/12/31 03:04:14;;;;;;;26.75;8.13;;;-1.40;99.90;;;;;;5093093;28;20071;-87
2021/12/31 03:06:43;;;;;;;40.85;9.40;;;-1.40;99.90;;;;;;5092985;28;20017;-87
2021/12/31 03:09:11;;;;;;;35.50;10.80;;;-1.40;99.90;;;;;;5092833;28;20028;-86
2021/12/31 03:11:37;;;;;;;42.50;11.55;;;-1.40;99.90;;;;;;5092952;28;20474;-87
2021/12/31 03:14:06;;;;;;;32.88;9.55;;;-1.40;99.90;;;;;;5093905;28;20028;-86
2021/12/31 03:16:32;;;;;;;28.15;9.38;;;-1.40;99.90;;;;;;5091955;28;20028;-87
2021/12/31 03:18:58;;;;;;;34.25;9.10;;;-1.30;99.90;;;;;;5093280;28;20036;-87
2021/12/31 03:21:24;;;;;;;34.50;9.38;;;-1.40;99.90;;;;;;5092365;28;20076;-86
2021/12/31 03:23:52;;;;;;;29.55;7.97;;;-1.30;99.90;;;;;;5092660;28;20028;-86
2021/12/31 03:26:20;;;;;;;33.70;8.57;;;-1.40;99.90;;;;;;5092748;28;20103;-87
2021/12/31 03:28:46;;;;;;;41.38;11.82;;;-1.40;99.90;;;;;;5092625;28;20020;-87
2021/12/31 03:31:11;;;;;;;34.42;10.43;;;-1.40;99.90;;;;;;5093423;28;20025;-87
2021/12/31 03:33:37;;;;;;;34.95;11.57;;;-1.40;99.90;;;;;;5096256;28;20153;-86
2021/12/31 03:36:04;;;;;;;39.65;10.55;;;-1.30;99.90;;;;;;5095466;28;20032;-87
2021/12/31 03:38:30;;;;;;;28.73;7.80;;;-1.30;99.90;;;;;;5096110;28;20031;-87
2021/12/31 03:40:55;;;;;;;29.17;8.82;;;-1.30;99.90;;;;;;5094762;28;20027;-87
2021/12/31 03:43:21;;;;;;;32.95;9.68;;;-1.30;99.90;;;;;;5091858;28;20181;-87
2021/12/31 03:45:50;;;;;;;29.42;8.73;;;-1.30;99.90;;;;;;5096082;28;20442;-87
2021/12/31 03:48:19;;;;;;;31.63;10.07;;;-1.30;99.90;;;;;;5097451;28;20020;-87
2021/12/31 03:50:45;;;;;;;33.28;10.02;;;-1.30;99.90;;;;;;5095864;28;20024;-87
2021/12/31 03:53:11;;;;;;;39.50;10.98;;;-1.40;99.90;;;;;;5096029;28;20027;-87
2021/12/31 03:55:37;;;;;;;32.35;10.60;;;-1.30;99.90;;;;;;5095890;28;20535;-87
2021/12/31 03:58:02;;;;;;;32.35;10.88;;;-1.30;99.90;;;;;;5094228;28;20039;-86
2021/12/31 04:00:29;;;;;;;45.30;13.02;;;-1.30;99.90;;;;;;5095814;28;20024;-87
2021/12/31 04:03:04;;;;;;;37.72;11.38;;;-1.40;99.90;;;;;;5095063;28;20382;-86
2021/12/31 04:05:29;;;;;;;43.63;12.07;;;-1.30;99.90;;;;;;5096752;28;20059;-86
2021/12/31 04:07:55;;;;;;;47.40;13.77;;;-1.30;99.90;;;;;;5095829;28;20055;-86
2021/12/31 04:10:23;;;;;;;56.65;15.15;;;-1.40;99.90;;;;;;5094340;28;20027;-86
2021/12/31 04:12:48;;;;;;;43.47;12.57;;;-1.40;99.90;;;;;;5095525;28;20023;-86
2021/12/31 04:15:14;;;;;;;38.42;12.52;;;-1.40;99.90;;;;;;5096403;28;20489;-86
2021/12/31 04:17:40;;;;;;;35.50;10.85;;;-1.40;99.90;;;;;;5095438;28;20062;-86
2021/12/31 04:20:10;;;;;;;34.70;11.77;;;-1.40;99.90;;;;;;5095368;28;20129;-86
2021/12/31 04:22:37;;;;;;;39.42;12.55;;;-1.40;99.90;;;;;;5095069;28;20051;-87
2021/12/31 04:25:03;;;;;;;42.45;12.35;;;-1.40;99.90;;;;;;5094123;28;20542;-86
2021/12/31 04:27:28;;;;;;;37.13;11.98;;;-1.40;99.90;;;;;;5075913;28;20115;-86
2021/12/31 04:29:54;;;;;;;43.55;11.15;;;-1.40;99.90;;;;;;5093975;28;20068;-86
2021/12/31 04:32:22;;;;;;;42.90;11.18;;;-1.40;99.90;;;;;;5096110;28;20032;-86
2021/12/31 04:34:48;;;;;;;35.45;10.45;;;-1.40;99.90;;;;;;5095176;28;20055;-86
2021/12/31 04:37:13;;;;;;;44.15;12.48;;;-1.40;99.90;;;;;;5107281;28;20024;-86
2021/12/31 04:39:39;;;;;;;34.28;11.90;;;-1.40;99.90;;;;;;5095112;28;20028;-86
2021/12/31 04:42:05;;;;;;;39.85;11.25;;;-1.40;99.90;;;;;;5094722;28;20085;-86
2021/12/31 04:44:31;;;;;;;38.90;11.80;;;-1.40;99.90;;;;;;5094930;28;20020;-86
2021/12/31 04:46:56;;;;;;;36.65;11.00;;;-1.40;99.90;;;;;;5095660;28;20016;-86
2021/12/31 04:49:22;;;;;;;53.53;13.80;;;-1.40;99.90;;;;;;5094703;28;20055;-87
2021/12/31 04:51:48;;;;;;;39.92;12.57;;;-1.40;99.90;;;;;;5094719;28;20081;-86
2021/12/31 04:54:16;;;;;;;43.13;12.18;;;-1.40;99.90;;;;;;5095972;28;20031;-86
2021/12/31 04:56:43;;;;;;;37.50;10.50;;;-1.40;99.90;;;;;;5094640;28;20028;-87
2021/12/31 04:59:09;;;;;;;52.55;12.82;;;-1.40;99.90;;;;;;5094750;28;20051;-87
2021/12/31 05:01:35;;;;;;;36.30;11.00;;;-1.40;99.90;;;;;;5094390;28;20021;-86
2021/12/31 05:04:01;;;;;;;41.97;14.45;;;-1.50;99.90;;;;;;5094823;28;20105;-86
2021/12/31 05:06:27;;;;;;;41.70;12.52;;;-1.40;99.90;;;;;;5094378;28;20020;-86
2021/12/31 05:08:52;;;;;;;30.13;10.40;;;-1.50;99.90;;;;;;5095596;28;20107;-87
2021/12/31 05:11:18;;;;;;;47.28;12.30;;;-1.40;99.90;;;;;;5094288;28;20058;-86
2021/12/31 05:13:44;;;;;;;37.13;12.60;;;-1.40;99.90;;;;;;5094213;28;20032;-86
2021/12/31 05:16:10;;;;;;;51.22;13.02;;;-1.40;99.90;;;;;;5094054;28;20031;-86
2021/12/31 05:18:35;;;;;;;41.58;12.45;;;-1.40;99.90;;;;;;5094334;28;20028;-87
2021/12/31 05:21:01;;;;;;;35.75;10.68;;;-1.40;99.90;;;;;;5096193;28;20024;-86
2021/12/31 05:23:27;;;;;;;38.55;11.48;;;-1.50;99.90;;;;;;5096615;28;20116;-86
2021/12/31 05:25:57;;;;;;;42.67;12.27;;;-1.40;99.90;;;;;;5096985;28;20035;-87
2021/12/31 05:28:22;;;;;;;36.30;11.55;;;-1.40;99.90;;;;;;5100947;28;20031;-86
2021/12/31 14:27:23;;;;;;;129.35;26.35;;;-0.80;99.90;;;;;;5072609;28;20356;-87
2021/12/31 14:29:49;;;;;;;169.15;32.25;;;-0.80;99.90;;;;;;5070705;28;20033;-87
2021/12/31 14:32:15;;;;;;;170.48;34.08;;;-0.90;99.90;;;;;;5085503;28;20025;-87
2021/12/31 14:34:40;;;;;;;142.82;31.52;;;-0.80;99.90;;;;;;5092094;28;20111;-87
2021/12/31 14:37:11;;;;;;;166.18;34.38;;;-0.80;99.90;;;;;;5091415;28;20528;-87
2021/12/31 14:39:39;;;;;;;140.15;32.17;;;-0.80;99.90;;;;;;5090658;28;20520;-87
2021/12/31 14:42:06;;;;;;;158.43;31.33;;;-0.70;99.90;;;;;;5090637;28;20532;-87
2021/12/31 14:44:32;;;;;;;150.48;33.70;;;-0.60;99.90;;;;;;5067950;28;20048;-87
2021/12/31 14:46:58;;;;;;;162.38;33.67;;;-0.60;99.90;;;;;;5050346;28;20468;-87
2021/12/31 14:49:26;;;;;;;151.32;32.67;;;-0.50;99.90;;;;;;5050400;28;20029;-87
2021/12/31 14:51:52;;;;;;;189.25;34.65;;;-0.50;99.90;;;;;;5050198;28;20116;-88
2021/12/31 14:54:19;;;;;;;163.60;28.40;;;-0.40;99.90;;;;;;5051224;28;20017;-88
2021/12/31 14:56:47;;;;;;;115.60;24.45;;;-0.40;99.90;;;;;;5050292;28;20136;-87
2021/12/31 14:59:13;;;;;;;159.50;29.77;;;-0.40;99.90;;;;;;5052498;28;20033;-87
2021/12/31 15:01:40;;;;;;;132.68;26.98;;;-0.30;99.90;;;;;;5068034;28;20031;-89
2021/12/31 15:04:06;;;;;;;144.98;34.85;;;-0.30;99.90;;;;;;5069920;28;20364;-87
2021/12/31 15:06:32;;;;;;;160.23;30.88;;;-0.20;99.90;;;;;;5069942;28;20119;-87
2021/12/31 15:08:58;;;;;;;170.15;31.05;;;-0.20;99.90;;;;;;5070352;28;20025;-88
2021/12/31 15:11:24;;;;;;;148.93;28.23;;;-0.20;99.90;;;;;;5072660;28;20029;-87
2021/12/31 15:13:49;;;;;;;164.45;30.60;;;-0.20;99.90;;;;;;5070039;28;20029;-88
2021/12/31 15:16:18;;;;;;;121.03;24.80;;;-0.10;99.90;;;;;;5052819;28;20028;-87
2021/12/31 15:18:44;;;;;;;123.20;26.92;;;-0.10;99.90;;;;;;5050281;28;20032;-87
2021/12/31 15:21:10;;;;;;;144.43;29.10;;;-0.10;99.90;;;;;;5049574;28;20028;-87
2021/12/31 15:23:35;;;;;;;133.65;25.77;;;-0.10;99.90;;;;;;5049578;28;20104;-87
2021/12/31 15:26:02;;;;;;;118.53;25.80;;;-0.10;99.90;;;;;;5049146;28;20869;-87
2021/12/31 15:28:28;;;;;;;134.57;26.60;;;0.00;99.90;;;;;;5050451;28;20025;-88
2021/12/31 15:30:54;;;;;;;117.05;25.13;;;0.00;99.90;;;;;;5049514;28;20036;-88
2021/12/31 15:33:20;;;;;;;159.15;28.35;;;0.00;99.90;;;;;;5059588;28;20078;-88
2021/12/31 15:35:45;;;;;;;152.98;26.80;;;0.00;99.90;;;;;;5069168;28;20033;-88
2021/12/31 15:38:11;;;;;;;130.00;24.65;;;0.00;99.90;;;;;;5058873;28;20061;-88
2021/12/31 15:40:37;;;;;;;125.72;26.10;;;0.00;99.90;;;;;;5056011;28;20079;-87
2021/12/31 15:43:02;;;;;;;157.43;29.52;;;0.00;99.90;;;;;;5040498;28;20029;-87
2021/12/31 15:45:28;;;;;;;166.00;30.38;;;0.00;99.90;;;;;;5036887;28;20353;-87
2021/12/31 15:47:55;;;;;;;117.13;21.45;;;0.00;99.90;;;;;;5050390;28;20121;-87
2021/12/31 15:50:21;;;;;;;117.18;23.60;;;0.00;99.90;;;;;;5055747;28;20045;-87
2021/12/31 15:52:47;;;;;;;146.65;30.38;;;0.10;99.90;;;;;;5055584;28;20024;-87
2021/12/31 15:55:14;;;;;;;147.32;28.85;;;0.00;99.90;;;;;;5055777;28;20029;-87
2021/12/31 15:57:39;;;;;;;173.65;31.60;;;0.10;99.90;;;;;;5053956;28;20029;-88
2021/12/31 16:00:06;;;;;;;148.02;29.48;;;0.10;99.90;;;;;;5055484;28;20033;-87
2021/12/31 16:02:32;;;;;;;175.32;32.90;;;0.10;99.90;;;;;;5055360;28;20018;-88
2021/12/31 16:04:58;;;;;;;174.10;32.20;;;0.10;99.90;;;;;;5050375;28;20028;-87
2021/12/31 16:07:24;;;;;;;153.70;30.38;;;0.10;99.90;;;;;;5055436;28;20479;-87
2021/12/31 16:09:49;;;;;;;146.02;28.30;;;0.10;99.90;;;;;;5053644;28;20052;-87
2021/12/31 16:12:15;;;;;;;118.05;24.27;;;0.10;99.90;;;;;;5055261;28;20116;-87
2021/12/31 16:14:40;;;;;;;108.97;22.48;;;0.10;99.90;;;;;;5055415;28;20116;-87
2021/12/31 16:17:06;;;;;;;146.88;31.27;;;0.10;99.90;;;;;;5054800;28;20143;-87
2021/12/31 16:19:32;;;;;;;169.50;31.63;;;0.10;99.90;;;;;;5036771;28;20439;-87
2021/12/31 16:21:57;;;;;;;144.38;26.65;;;0.10;99.90;;;;;;5035160;28;20400;-87
2021/12/31 16:24:24;;;;;;;169.90;30.50;;;0.10;99.90;;;;;;5060983;28;20029;-87
2021/12/31 16:26:50;;;;;;;176.32;34.85;;;0.10;99.90;;;;;;5054221;28;20263;-87
2021/12/31 16:29:15;;;;;;;126.32;27.95;;;0.10;99.90;;;;;;5035104;28;20098;-88
2021/12/31 16:31:41;;;;;;;175.20;32.40;;;0.10;99.90;;;;;;5035920;28;20025;-88
2021/12/31 16:34:10;;;;;;;152.45;31.30;;;0.10;99.90;;;;;;5051977;28;20413;-88
2021/12/31 16:36:37;;;;;;;159.00;31.00;;;0.10;99.90;;;;;;5036387;28;20029;-89
2021/12/31 16:39:03;;;;;;;145.98;29.83;;;0.20;99.90;;;;;;5034743;28;20488;-88
2021/12/31 16:41:29;;;;;;;179.50;32.95;;;0.10;99.90;;;;;;5034644;28;20537;-89
2021/12/31 16:44:00;;;;;;;136.07;29.90;;;0.10;99.90;;;;;;5035358;28;20033;-89
2021/12/31 16:46:25;;;;;;;138.55;30.58;;;0.20;99.90;;;;;;5055560;28;20025;-89
2021/12/31 17:13:12;;;;;;;158.60;31.05;;;0.20;99.90;;;;;;5139272;22;20049;-96
2021/12/31 17:24:59;;;;;;;201.98;39.05;;;0.10;99.90;;;;;;5028365;28;20049;-96
2021/12/31 17:28:12;;;;;;;189.18;37.75;;;0.10;99.90;;;;;;5017177;28;20034;-96
2021/12/31 17:31:06;;;;;;;202.35;40.20;;;0.20;99.90;;;;;;5003654;28;20030;-96
2021/12/31 17:33:45;;;;;;;195.45;37.65;;;0.20;99.90;;;;;;5019536;28;20049;-96
2021/12/31 17:43:08;;;;;;;188.98;37.40;;;0.20;99.90;;;;;;5031519;28;20045;-96
2021/12/31 17:45:36;;;;;;;183.15;38.63;;;0.20;99.90;;;;;;5023721;28;20021;-96
2021/12/31 17:48:02;;;;;;;219.90;41.45;;;0.20;99.90;;;;;;5026083;28;20136;-94
2021/12/31 17:50:30;;;;;;;209.93;42.33;;;0.20;99.90;;;;;;5022990;28;20026;-96
2021/12/31 17:52:57;;;;;;;209.38;37.10;;;0.20;99.90;;;;;;5014306;28;20465;-96
2021/12/31 17:55:23;;;;;;;214.02;43.47;;;0.20;99.90;;;;;;5019939;28;20030;-96
2021/12/31 17:57:49;;;;;;;214.02;40.67;;;0.20;99.90;;;;;;5020818;28;20049;-96
2021/12/31 18:00:16;;;;;;;182.65;36.40;;;0.20;99.90;;;;;;5016130;28;20472;-96
2021/12/31 18:02:43;;;;;;;178.13;35.15;;;0.20;99.90;;;;;;5018267;28;20029;-96
2021/12/31 18:05:10;;;;;;;155.90;30.17;;;0.20;99.90;;;;;;5028320;28;20033;-96
2021/12/31 18:08:02;;;;;;;189.18;32.53;;;0.20;99.90;;;;;;5032385;28;20046;-96
2021/12/31 18:10:31;;;;;;;177.20;33.90;;;0.30;99.90;;;;;;5026468;28;20086;-96
2021/12/31 18:12:58;;;;;;;198.25;35.92;;;0.20;99.90;;;;;;5026926;28;20076;-96
2021/12/31 18:20:52;;;;;;;213.48;37.38;;;0.30;99.90;;;;;;5109987;22;20053;-96
2021/12/31 18:23:22;;;;;;;250.70;46.85;;;0.30;99.90;;;;;;5021899;28;20009;-96
2021/12/31 18:25:50;;;;;;;242.45;43.35;;;0.30;99.90;;;;;;5035638;28;20029;-96
2021/12/31 18:28:46;;;;;;;274.13;43.30;;;0.30;99.90;;;;;;5037914;28;20041;-96
2021/12/31 18:40:53;;;;;;;230.32;38.10;;;0.30;99.90;;;;;;5360023;22;20093;-96
2021/12/31 18:43:20;;;;;;;220.45;36.72;;;0.30;99.90;;;;;;5029097;28;20195;-96
2021/12/31 18:45:46;;;;;;;234.02;39.88;;;0.30;99.90;;;;;;5026031;28;20030;-96
2021/12/31 18:48:13;;;;;;;231.27;37.60;;;0.30;99.90;;;;;;4992103;28;20049;-96
2021/12/31 18:50:43;;;;;;;289.80;42.90;;;0.30;99.90;;;;;;5020929;28;20089;-96
2021/12/31 18:53:10;;;;;;;281.20;41.33;;;0.30;99.90;;;;;;5016284;28;20034;-96
2021/12/31 18:55:48;;;;;;;240.43;39.50;;;0.30;99.90;;;;;;4998509;28;20048;-96
2021/12/31 18:58:14;;;;;;;275.27;40.88;;;0.30;99.90;;;;;;5019249;28;20034;-96
2021/12/31 19:00:39;;;;;;;245.23;38.03;;;0.30;99.90;;;;;;5024236;28;20026;-96
2021/12/31 19:03:15;;;;;;;240.63;40.90;;;0.40;99.90;;;;;;5023748;28;20022;-96
2021/12/31 19:05:41;;;;;;;245.52;39.40;;;0.30;99.90;;;;;;4999242;28;20034;-96
2021/12/31 19:08:08;;;;;;;209.57;37.58;;;0.40;99.90;;;;;;5014791;28;20033;-96
2021/12/31 19:10:34;;;;;;;222.88;35.63;;;0.30;99.90;;;;;;5003803;28;20075;-96
2021/12/31 19:13:00;;;;;;;248.70;41.08;;;0.40;99.90;;;;;;5019521;28;20030;-96
2021/12/31 19:15:30;;;;;;;268.67;43.60;;;0.30;99.90;;;;;;5028556;28;20036;-96
2021/12/31 19:17:58;;;;;;;295.88;46.33;;;0.40;99.90;;;;;;5022903;28;20435;-96
2021/12/31 19:20:24;;;;;;;318.90;49.08;;;0.30;99.90;;;;;;5023092;28;20029;-96
2021/12/31 19:22:50;;;;;;;237.88;43.55;;;0.40;99.90;;;;;;5020601;28;20030;-96
2021/12/31 19:25:15;;;;;;;275.17;47.08;;;0.40;99.90;;;;;;5020045;28;20034;-96
2021/12/31 19:27:41;;;;;;;251.85;46.28;;;0.40;99.90;;;;;;5021390;28;20495;-95
2021/12/31 19:30:07;;;;;;;243.55;43.65;;;0.40;99.90;;;;;;5016727;28;20026;-95
2021/12/31 19:32:34;;;;;;;265.40;49.60;;;0.40;99.90;;;;;;5001460;28;20372;-96
2021/12/31 19:34:59;;;;;;;281.25;49.33;;;0.40;99.90;;;;;;5017930;28;20034;-95
2021/12/31 19:37:25;;;;;;;274.30;47.05;;;0.40;99.90;;;;;;5017022;28;20036;-91
2021/12/31 19:39:51;;;;;;;267.25;45.47;;;0.40;99.90;;;;;;5016805;28;20030;-89
2021/12/31 19:42:18;;;;;;;232.05;43.25;;;0.40;99.90;;;;;;5013414;28;20053;-87
2021/12/31 19:44:43;;;;;;;204.30;40.13;;;0.40;99.90;;;;;;4999844;28;20069;-88
2021/12/31 19:47:09;;;;;;;230.02;46.28;;;0.40;99.90;;;;;;4999514;28;20029;-88
2021/12/31 19:49:35;;;;;;;187.93;43.53;;;0.40;99.90;;;;;;4999717;28;20030;-89
2021/12/31 19:52:00;;;;;;;251.48;50.97;;;0.40;99.90;;;;;;4999761;28;20392;-89
2021/12/31 19:54:26;;;;;;;224.38;48.97;;;0.40;99.90;;;;;;5017182;28;20022;-89
2021/12/31 19:56:52;;;;;;;259.17;56.75;;;0.40;99.90;;;;;;4999672;28;20026;-91
2021/12/31 19:59:18;;;;;;;248.07;55.28;;;0.40;99.90;;;;;;4994346;28;20450;-91
2021/12/31 20:01:43;;;;;;;220.57;52.80;;;0.40;99.90;;;;;;4980922;28;20026;-90
2021/12/31 20:04:09;;;;;;;225.85;51.28;;;0.40;99.90;;;;;;4980034;28;20034;-89
2021/12/31 20:06:34;;;;;;;248.80;59.67;;;0.40;99.90;;;;;;4980046;28;20030;-91
2021/12/31 20:09:00;;;;;;;229.82;53.85;;;0.40;99.90;;;;;;4979958;28;20046;-91
2021/12/31 20:11:26;;;;;;;249.63;56.17;;;0.40;99.90;;;;;;4979895;28;20023;-91
2021/12/31 20:13:52;;;;;;;269.05;62.63;;;0.40;99.90;;;;;;4979832;28;20023;-91
2021/12/31 20:16:18;;;;;;;256.23;60.30;;;0.40;99.90;;;;;;4979928;28;20030;-91
2021/12/31 20:18:44;;;;;;;284.10;63.28;;;0.40;99.90;;;;;;4979895;28;20057;-91
2021/12/31 20:21:10;;;;;;;268.08;61.55;;;0.50;99.90;;;;;;4979876;28;20539;-90
2021/12/31 20:23:36;;;;;;;277.23;62.33;;;0.40;99.90;;;;;;4979910;28;20057;-91
2021/12/31 20:26:02;;;;;;;260.65;62.45;;;0.50;99.90;;;;;;4979600;28;20080;-90
2021/12/31 20:28:27;;;;;;;300.08;67.10;;;0.50;99.90;;;;;;4979361;28;20034;-91
2021/12/31 20:30:55;;;;;;;298.17;67.90;;;0.40;99.90;;;;;;4991894;28;20017;-90
2021/12/31 20:33:20;;;;;;;273.63;64.60;;;0.40;99.90;;;;;;5018452;28;20476;-91
2021/12/31 20:35:46;;;;;;;297.98;68.75;;;0.50;99.90;;;;;;5018544;28;20053;-90
2021/12/31 20:38:11;;;;;;;291.60;67.75;;;0.40;99.90;;;;;;5018647;28;20033;-90
2021/12/31 20:40:38;;;;;;;300.92;65.65;;;0.50;99.90;;;;;;5018171;28;20136;-91
2021/12/31 20:43:04;;;;;;;270.70;71.32;;;0.50;99.90;;;;;;5012000;28;20033;-90
2021/12/31 20:45:30;;;;;;;294.98;72.60;;;0.40;99.90;;;;;;4999301;28;20376;-90
2021/12/31 20:47:55;;;;;;;281.10;69.97;;;0.50;99.90;;;;;;4998584;28;20022;-90
2021/12/31 20:50:23;;;;;;;277.23;67.13;;;0.40;99.90;;;;;;4998587;28;20038;-90
2021/12/31 20:52:49;;;;;;;294.15;75.13;;;0.50;99.90;;;;;;4998388;28;20361;-90
2021/12/31 20:55:15;;;;;;;291.38;70.55;;;0.50;99.90;;;;;;4998444;28;20018;-90
2021/12/31 20:57:40;;;;;;;310.35;76.00;;;0.50;99.90;;;;;;5015993;28;20032;-89
2021/12/31 21:00:08;;;;;;;272.48;72.18;;;0.50;99.90;;;;;;4998966;28;20026;-90
2021/12/31 21:02:34;;;;;;;267.48;72.50;;;0.50;99.90;;;;;;4998409;28;20022;-90
2021/12/31 21:05:01;;;;;;;312.65;77.07;;;0.50;99.90;;;;;;4998481;28;20053;-90
2021/12/31 21:07:26;;;;;;;301.02;71.30;;;0.50;99.90;;;;;;4998056;28;20026;-90
2021/12/31 21:09:52;;;;;;;285.13;71.18;;;0.50;99.90;;;;;;4998047;28;20018;-88
2021/12/31 21:12:19;;;;;;;286.65;68.65;;;0.50;99.90;;;;;;4998219;28;20018;-90
2021/12/31 21:14:46;;;;;;;244.55;64.88;;;0.50;99.90;;;;;;4981619;28;20085;-89
2021/12/31 21:17:12;;;;;;;269.60;65.25;;;0.50;99.90;;;;;;4984576;28;20030;-88
2021/12/31 21:19:37;;;;;;;283.50;68.05;;;0.50;99.90;;;;;;5014610;28;20026;-88
2021/12/31 21:22:04;;;;;;;237.10;61.35;;;0.50;99.90;;;;;;5014243;28;20518;-88
2021/12/31 21:24:30;;;;;;;264.85;65.65;;;0.50;99.90;;;;;;4997989;28;20037;-87
2021/12/31 21:26:58;;;;;;;264.35;65.82;;;0.50;99.90;;;;;;4997647;28;20477;-87
2021/12/31 21:29:28;;;;;;;294.75;73.78;;;0.50;99.90;;;;;;4997919;28;20022;-88
2021/12/31 21:31:54;;;;;;;327.92;72.70;;;0.50;99.90;;;;;;4997858;28;20472;-89
2021/12/31 21:34:23;;;;;;;246.88;62.60;;;0.50;99.90;;;;;;4997660;28;20472;-88
2021/12/31 21:36:53;;;;;;;285.80;71.18;;;0.50;99.90;;;;;;4997103;28;20026;-89
2021/12/31 21:39:19;;;;;;;282.65;66.15;;;0.50;99.90;;;;;;4997814;28;20026;-89
2021/12/31 21:41:45;;;;;;;326.50;72.20;;;0.50;99.90;;;;;;4997264;28;20053;-89
2021/12/31 21:44:11;;;;;;;312.05;68.65;;;0.50;99.90;;;;;;4997742;28;20439;-89
2021/12/31 21:46:36;;;;;;;342.55;73.07;;;0.60;99.90;;;;;;4998054;28;20412;-89
2021/12/31 21:49:02;;;;;;;325.08;74.28;;;0.50;99.90;;;;;;4997755;28;20471;-89
2021/12/31 21:51:28;;;;;;;321.60;74.50;;;0.50;99.90;;;;;;4990789;28;20026;-89
2021/12/31 21:53:53;;;;;;;350.00;83.85;;;0.50;99.90;;;;;;5000663;28;20026;-89
2021/12/31 21:56:19;;;;;;;320.17;73.10;;;0.50;99.90;;;;;;4997326;28;20116;-89
2021/12/31 21:58:45;;;;;;;284.58;71.10;;;0.50;99.90;;;;;;4998155;28;20141;-89
2021/12/31 22:01:11;;;;;;;351.90;81.20;;;0.50;99.90;;;;;;4997343;28;20392;-89
2021/12/31 22:03:37;;;;;;;330.05;73.60;;;0.50;99.90;;;;;;4997426;28;20026;-89
2021/12/31 22:06:03;;;;;;;379.02;78.00;;;0.50;99.90;;;;;;4984221;28;20469;-90
2021/12/31 22:08:29;;;;;;;360.70;80.32;;;0.50;99.90;;;;;;4977901;28;20034;-89
2021/12/31 22:10:54;;;;;;;426.17;98.43;;;0.50;99.90;;;;;;4977813;28;20022;-88
2021/12/31 22:13:20;;;;;;;395.17;90.00;;;0.50;99.90;;;;;;4977649;28;20035;-89
2021/12/31 22:15:46;;;;;;;410.63;93.43;;;0.50;99.90;;;;;;4977614;28;20077;-89
2021/12/31 22:18:12;;;;;;;399.77;95.38;;;0.50;99.90;;;;;;4980394;28;20033;-89
2021/12/31 22:20:38;;;;;;;418.48;88.85;;;0.50;99.90;;;;;;4996867;28;20030;-88
2021/12/31 22:23:04;;;;;;;360.08;77.57;;;0.50;99.90;;;;;;4996979;28;20022;-88
2021/12/31 22:25:30;;;;;;;292.95;67.25;;;0.50;99.90;;;;;;4996329;28;20539;-88